createdAt,value
2023-03-31T00:00:02.715Z,9.31
2023-03-31T00:05:02.469Z,9.34
2023-03-31T00:10:16.361Z,9.24
2023-03-31T00:15:02.548Z,9.29
2023-03-31T00:20:02.616Z,9.25
2023-03-31T00:25:02.327Z,9.31
2023-03-31T00:30:03.001Z,9.39
2023-03-31T00:35:02.720Z,9.4
2023-03-31T00:40:02.624Z,9.49
2023-03-31T00:45:02.369Z,9.5
2023-03-31T00:50:03.020Z,9.4
2023-03-31T00:55:03.668Z,9.43
2023-03-31T01:00:02.601Z,9.65
2023-03-31T01:05:02.600Z,9.63
2023-03-31T01:10:02.427Z,9.78
2023-03-31T01:15:02.952Z,9.72
2023-03-31T01:20:02.391Z,9.6
2023-03-31T01:25:03.165Z,9.47
2023-03-31T01:30:03.172Z,9.49
2023-03-31T01:35:02.548Z,9.49
2023-03-31T01:40:02.523Z,9.44
2023-03-31T01:45:02.381Z,9.52
2023-03-31T01:50:03.093Z,9.39
2023-03-31T01:55:03.493Z,9.35
2023-03-31T02:00:02.535Z,9.36
2023-03-31T02:05:03.173Z,9.21
2023-03-31T02:10:02.892Z,9.27
2023-03-31T02:15:02.670Z,9.28
2023-03-31T02:20:02.332Z,9.3
2023-03-31T02:25:03.055Z,9.21
2023-03-31T02:30:03.200Z,9.23
2023-03-31T02:35:02.864Z,9.23
2023-03-31T02:40:02.993Z,9.11
2023-03-31T02:45:03.153Z,9.31
2023-03-31T02:50:02.798Z,9.27
2023-03-31T02:55:02.980Z,9.29
2023-03-31T03:00:02.362Z,9.23
2023-03-31T03:05:03.020Z,9.34
2023-03-31T03:10:02.873Z,9.19
2023-03-31T03:15:02.816Z,9.21
2023-03-31T03:20:02.305Z,9.07
2023-03-31T03:25:03.150Z,9.14
2023-03-31T03:30:02.834Z,9.11
2023-03-31T03:35:02.581Z,9.22
2023-03-31T03:40:02.444Z,9.09
2023-03-31T03:45:03.232Z,9.07
2023-03-31T03:50:03.006Z,9.06
2023-03-31T03:55:03.532Z,9.11
2023-03-31T04:00:02.508Z,9.01
2023-03-31T04:05:03.187Z,8.97
2023-03-31T04:10:02.978Z,9
2023-03-31T04:15:02.792Z,8.99
2023-03-31T04:20:02.505Z,8.94
2023-03-31T04:25:02.295Z,8.99
2023-03-31T04:30:02.935Z,8.94
2023-03-31T04:35:02.749Z,9.02
2023-03-31T04:40:02.407Z,8.89
2023-03-31T04:45:03.226Z,8.77
2023-03-31T04:50:02.874Z,8.75
2023-03-31T04:55:04.156Z,8.58
2023-03-31T05:00:02.660Z,8.43
2023-03-31T05:05:02.326Z,8.28
2023-03-31T05:10:03.074Z,8.24
2023-03-31T05:15:02.808Z,8.19
2023-03-31T05:20:02.549Z,8.27
2023-03-31T05:25:02.373Z,8.47
2023-03-31T05:30:03.050Z,8.74
2023-03-31T05:35:02.903Z,8.93
2023-03-31T05:40:02.645Z,9
2023-03-31T05:45:02.509Z,9.01
2023-03-31T05:50:02.256Z,9.01
2023-03-31T05:55:03.887Z,8.9
2023-03-31T06:00:03.721Z,8.73
2023-03-31T06:05:03.105Z,8.63
2023-03-31T06:10:02.876Z,9.38
2023-03-31T06:15:02.915Z,10.67
2023-03-31T06:20:10.113Z,11.57
2023-03-31T06:25:03.114Z,11.91
2023-03-31T06:30:02.980Z,11.92
2023-03-31T06:35:02.624Z,12.39
2023-03-31T06:40:02.428Z,12.31
2023-03-31T06:45:02.553Z,11.56
2023-03-31T06:50:02.418Z,11.83
2023-03-31T06:55:03.496Z,12.66
2023-03-31T07:00:02.885Z,12.24
2023-03-31T07:05:02.512Z,11.99
2023-03-31T07:10:02.303Z,11.46
2023-03-31T07:15:03.042Z,11.61
2023-03-31T07:20:02.800Z,11.3
2023-03-31T07:25:02.384Z,11.24
2023-03-31T07:30:03.183Z,11.38
2023-03-31T07:35:02.931Z,11.43
2023-03-31T07:40:02.759Z,11.78
2023-03-31T07:45:02.831Z,11.9
2023-03-31T07:50:02.468Z,12.22
2023-03-31T07:55:03.956Z,12.41
2023-03-31T08:00:03.215Z,12.16
2023-03-31T08:05:02.660Z,12.7
2023-03-31T08:10:02.430Z,12.08
2023-03-31T08:15:02.274Z,11.87
2023-03-31T08:20:07.117Z,11.62
2023-03-31T08:25:03.043Z,11.58
2023-03-31T08:30:03.010Z,11.33
2023-03-31T08:35:02.725Z,10.94
2023-03-31T08:50:02.989Z,10.31
2023-03-31T08:55:03.522Z,10.49
2023-03-31T09:00:02.524Z,10.86
2023-03-31T09:05:02.295Z,11.4
2023-03-31T09:10:02.955Z,12.08
2023-03-31T09:15:02.712Z,11.94
2023-03-31T09:20:02.549Z,11.93
2023-03-31T09:25:02.274Z,12.37
2023-03-31T09:30:03.265Z,12.09
2023-03-31T09:35:02.756Z,11.98
2023-03-31T09:40:02.484Z,12.4
2023-03-31T09:45:03.196Z,12.2
2023-03-31T09:50:02.256Z,12.01
2023-03-31T09:55:03.737Z,11.92
2023-03-31T10:00:02.789Z,12.24
2023-03-31T10:05:02.584Z,12.38
2023-03-31T10:10:02.560Z,12.15
2023-03-31T10:15:02.381Z,11.97
2023-03-31T10:20:03.356Z,11.09
2023-03-31T10:25:02.891Z,10.81
2023-03-31T10:30:02.791Z,10.84
2023-03-31T10:35:02.406Z,10.95
2023-03-31T10:40:03.111Z,11.15
2023-03-31T10:45:03.160Z,11.28
2023-03-31T10:50:02.808Z,11.32
2023-03-31T10:55:03.806Z,11.24
2023-03-31T11:00:02.587Z,11.06
2023-03-31T11:05:02.319Z,11.05
2023-03-31T11:10:02.399Z,11.05
2023-03-31T11:15:02.708Z,10.95
2023-03-31T11:20:03.051Z,10.72
2023-03-31T11:25:02.817Z,10.64
2023-03-31T11:30:02.512Z,10.65
2023-03-31T11:35:02.340Z,10.65
2023-03-31T11:40:02.273Z,10.62
2023-03-31T11:45:03.193Z,10.49
2023-03-31T11:50:02.794Z,10.48
2023-03-31T11:55:04.236Z,10.35
2023-03-31T12:00:02.696Z,10.34
2023-03-31T12:05:02.712Z,10.32
2023-03-31T12:10:02.400Z,10.01
2023-03-31T12:15:02.378Z,9.94
2023-03-31T12:25:03.094Z,9.88
2023-03-31T12:35:02.562Z,9.85
2023-03-31T12:45:02.220Z,9.78
2023-03-31T12:50:02.216Z,9.88
2023-03-31T13:00:02.856Z,9.85
2023-03-31T13:05:02.788Z,9.7
2023-03-31T13:10:02.598Z,9.71
2023-03-31T13:15:02.389Z,9.56
2023-03-31T13:20:02.928Z,9.48
2023-03-31T13:25:03.026Z,9.66
2023-03-31T13:30:02.821Z,9.63
2023-03-31T13:35:02.819Z,9.6
2023-03-31T13:40:02.510Z,9.64
2023-03-31T13:45:02.354Z,9.68
2023-03-31T13:50:03.012Z,9.8
2023-03-31T13:55:03.640Z,9.79
2023-03-31T14:00:02.526Z,9.78
2023-03-31T14:05:03.160Z,9.76
2023-03-31T14:10:02.428Z,9.85
2023-03-31T14:15:02.189Z,9.94
2023-03-31T14:20:03.084Z,10
2023-03-31T14:25:03.091Z,9.98
2023-03-31T14:30:03.149Z,10.07
2023-03-31T14:35:02.594Z,10.17
2023-03-31T14:40:02.323Z,10.22
2023-03-31T14:45:03.205Z,10.29
2023-03-31T14:50:02.823Z,10.47
2023-03-31T14:55:02.963Z,10.41
2023-03-31T15:00:03.076Z,10.45
2023-03-31T15:05:02.775Z,10.55
2023-03-31T15:10:02.440Z,10.61
2023-03-31T15:15:03.216Z,10.74
2023-03-31T15:20:02.999Z,10.9
2023-03-31T15:25:02.716Z,11.04
2023-03-31T15:30:02.469Z,11.45
2023-03-31T15:35:07.889Z,11.16
2023-03-31T15:40:03.279Z,11.29
2023-03-31T15:45:02.747Z,11.19
2023-03-31T15:50:02.589Z,11.13
2023-03-31T15:55:03.570Z,10.93
2023-03-31T16:00:02.438Z,10.95
2023-03-31T16:05:04.420Z,10.86
2023-03-31T16:10:02.710Z,10.86
2023-03-31T16:15:02.597Z,10.79
2023-03-31T16:20:02.772Z,10.79
2023-03-31T16:25:03.063Z,10.77
2023-03-31T16:30:03.123Z,10.69
2023-03-31T16:35:02.547Z,10.62
2023-03-31T16:40:02.315Z,10.53
2023-03-31T16:50:02.900Z,10.55
2023-03-31T16:55:03.590Z,10.36
2023-03-31T17:00:02.562Z,10.24
2023-03-31T17:05:12.419Z,10.04
2023-03-31T17:10:02.716Z,9.69
2023-03-31T17:15:02.449Z,9.73
2023-03-31T17:20:03.334Z,9.73
2023-03-31T17:25:02.840Z,9.8
2023-03-31T17:30:02.819Z,9.79
2023-03-31T17:35:02.236Z,9.71
2023-03-31T17:40:02.985Z,9.53
2023-03-31T17:45:02.770Z,9.5
2023-03-31T17:50:02.540Z,9.44
2023-03-31T17:55:03.480Z,9.39
2023-03-31T18:00:03.372Z,8.9
2023-03-31T18:05:02.816Z,8.71
2023-03-31T18:10:02.540Z,8.56
2023-03-31T18:15:02.678Z,8.47
2023-03-31T18:20:02.466Z,8.37
2023-03-31T18:25:02.293Z,8.2
2023-03-31T18:30:03.125Z,7.98
2023-03-31T18:35:02.852Z,7.77
2023-03-31T18:40:02.787Z,7.5
2023-03-31T18:45:02.539Z,7.52
2023-03-31T18:50:03.264Z,7.63
2023-03-31T18:55:04.429Z,7.69
2023-03-31T19:00:03.023Z,7.73
2023-03-31T19:05:02.619Z,7.75
2023-03-31T19:10:02.630Z,7.7
2023-03-31T19:15:02.217Z,7.75
2023-03-31T19:20:02.891Z,7.58
2023-03-31T19:25:02.572Z,7.49
2023-03-31T19:30:02.585Z,7.45
2023-03-31T19:35:02.362Z,7.51
2023-03-31T19:40:03.123Z,7.59
2023-03-31T19:45:02.856Z,7.7
2023-03-31T19:50:02.987Z,7.86
2023-03-31T19:55:03.844Z,8.05
2023-03-31T20:00:04.193Z,8.16
2023-03-31T20:05:02.395Z,8.31
2023-03-31T20:10:02.173Z,8.21
2023-03-31T20:15:02.647Z,8.16
2023-03-31T20:20:02.666Z,8.19
2023-03-31T20:25:07.369Z,8.18
2023-03-31T20:30:02.378Z,8.19
2023-03-31T20:35:03.011Z,8.26
2023-03-31T20:40:02.777Z,8.22
2023-03-31T20:45:02.453Z,8.18
2023-03-31T20:50:03.091Z,8.02
2023-03-31T20:55:04.048Z,7.99
2023-03-31T21:00:02.907Z,8.01
2023-03-31T21:05:02.624Z,8.02
2023-03-31T21:10:02.505Z,8.42
2023-03-31T21:15:02.512Z,8.45
2023-03-31T21:20:02.200Z,8.52
2023-03-31T21:25:03.055Z,8.78
2023-03-31T21:30:02.773Z,8.78
2023-03-31T21:35:02.663Z,8.8
2023-03-31T21:40:02.357Z,8.69
2023-03-31T21:45:02.281Z,8.64
2023-03-31T21:50:03.027Z,8.69
2023-03-31T21:55:03.476Z,8.62
2023-03-31T22:00:02.567Z,8.57
2023-03-31T22:05:03.154Z,8.59
2023-03-31T22:10:02.984Z,8.53
2023-03-31T22:15:02.281Z,8.44
2023-03-31T22:20:03.126Z,8.49
2023-03-31T22:25:02.895Z,8.44
2023-03-31T22:30:02.693Z,8.44
2023-03-31T22:35:02.344Z,8.47
2023-03-31T22:40:03.095Z,8.47
2023-03-31T22:45:02.816Z,8.52
2023-03-31T22:50:02.621Z,8.55
2023-03-31T22:55:03.094Z,8.62
2023-03-31T23:00:02.795Z,8.55
2023-03-31T23:05:02.294Z,8.67
2023-03-31T23:10:02.212Z,8.62
2023-03-31T23:15:03.139Z,8.61
2023-03-31T23:20:03.032Z,8.57
2023-03-31T23:25:02.712Z,8.51
2023-03-31T23:30:02.488Z,8.53
2023-03-31T23:35:03.147Z,8.56
2023-03-31T23:40:03.081Z,8.53
2023-03-31T23:45:02.327Z,8.5
2023-03-31T23:50:02.175Z,8.33
2023-03-31T23:55:03.482Z,8.45
